sensor_id;sensor_type;location;lat;lon;timestamp;P1;durP1;ratioP1;P2;durP2;ratioP2
28625;SDS011;18905;42.668;23.364;2023-03-01T00:01:29;6.18;;;4.13;;
28625;SDS011;18905;42.668;23.364;2023-03-01T00:03:55;6.60;;;4.43;;
28625;SDS011;18905;42.668;23.364;2023-03-01T00:06:22;9.35;;;4.43;;
28625;SDS011;18905;42.668;23.364;2023-03-01T00:08:48;6.80;;;4.65;;
28625;SDS011;18905;42.668;23.364;2023-03-01T00:11:23;6.90;;;4.72;;
28625;SDS011;18905;42.668;23.364;2023-03-01T00:13:54;5.95;;;4.35;;
28625;SDS011;18905;42.668;23.364;2023-03-01T00:16:26;6.20;;;3.97;;
28625;SDS011;18905;42.668;23.364;2023-03-01T00:18:54;9.20;;;4.72;;
28625;SDS011;18905;42.668;23.364;2023-03-01T00:21:20;7.05;;;3.78;;
28625;SDS011;18905;42.668;23.364;2023-03-01T00:23:47;5.78;;;3.90;;
28625;SDS011;18905;42.668;23.364;2023-03-01T00:26:14;5.47;;;3.97;;
28625;SDS011;18905;42.668;23.364;2023-03-01T00:28:41;7.13;;;4.28;;
28625;SDS011;18905;42.668;23.364;2023-03-01T00:31:08;7.13;;;4.10;;
28625;SDS011;18905;42.668;23.364;2023-03-01T00:33:36;5.00;;;4.00;;
28625;SDS011;18905;42.668;23.364;2023-03-01T00:36:01;4.90;;;3.60;;
28625;SDS011;18905;42.668;23.364;2023-03-01T00:38:28;8.13;;;4.22;;
28625;SDS011;18905;42.668;23.364;2023-03-01T00:40:53;4.50;;;3.35;;
28625;SDS011;18905;42.668;23.364;2023-03-01T00:43:19;6.22;;;4.22;;
28625;SDS011;18905;42.668;23.364;2023-03-01T00:45:45;7.95;;;4.20;;
28625;SDS011;18905;42.668;23.364;2023-03-01T00:48:10;5.53;;;3.55;;
28625;SDS011;18905;42.668;23.364;2023-03-01T00:50:36;6.05;;;2.95;;
28625;SDS011;18905;42.668;23.364;2023-03-01T00:53:01;6.47;;;3.90;;
28625;SDS011;18905;42.668;23.364;2023-03-01T00:55:27;7.15;;;3.70;;
28625;SDS011;18905;42.668;23.364;2023-03-01T00:57:52;4.32;;;3.20;;
28625;SDS011;18905;42.668;23.364;2023-03-01T01:00:18;4.47;;;3.60;;
28625;SDS011;18905;42.668;23.364;2023-03-01T01:02:44;4.60;;;3.35;;
28625;SDS011;18905;42.668;23.364;2023-03-01T01:05:10;4.90;;;3.30;;
28625;SDS011;18905;42.668;23.364;2023-03-01T01:07:36;5.75;;;3.90;;
28625;SDS011;18905;42.668;23.364;2023-03-01T01:10:02;5.47;;;3.50;;
28625;SDS011;18905;42.668;23.364;2023-03-01T01:12:27;5.13;;;3.65;;
28625;SDS011;18905;42.668;23.364;2023-03-01T01:14:53;4.28;;;2.92;;
28625;SDS011;18905;42.668;23.364;2023-03-01T01:17:18;6.43;;;3.83;;
28625;SDS011;18905;42.668;23.364;2023-03-01T01:19:44;3.42;;;3.00;;
28625;SDS011;18905;42.668;23.364;2023-03-01T01:22:09;3.65;;;3.00;;
28625;SDS011;18905;42.668;23.364;2023-03-01T01:24:35;4.55;;;3.35;;
28625;SDS011;18905;42.668;23.364;2023-03-01T01:27:00;3.78;;;2.90;;
28625;SDS011;18905;42.668;23.364;2023-03-01T01:29:25;6.22;;;2.83;;
28625;SDS011;18905;42.668;23.364;2023-03-01T01:31:51;4.82;;;3.03;;
28625;SDS011;18905;42.668;23.364;2023-03-01T01:34:17;4.10;;;2.70;;
28625;SDS011;18905;42.668;23.364;2023-03-01T01:36:47;4.05;;;2.60;;
28625;SDS011;18905;42.668;23.364;2023-03-01T01:39:14;3.25;;;2.45;;
28625;SDS011;18905;42.668;23.364;2023-03-01T01:41:41;3.17;;;2.78;;
28625;SDS011;18905;42.668;23.364;2023-03-01T01:46:41;4.07;;;2.97;;
28625;SDS011;18905;42.668;23.364;2023-03-01T01:49:33;4.03;;;3.00;;
28625;SDS011;18905;42.668;23.364;2023-03-01T01:52:05;2.42;;;1.92;;
28625;SDS011;18905;42.668;23.364;2023-03-01T01:54:37;2.60;;;2.40;;
28625;SDS011;18905;42.668;23.364;2023-03-01T01:57:25;2.30;;;2.05;;
28625;SDS011;18905;42.668;23.364;2023-03-01T01:59:58;3.03;;;2.47;;
28625;SDS011;18905;42.668;23.364;2023-03-01T02:02:27;3.42;;;2.40;;
28625;SDS011;18905;42.668;23.364;2023-03-01T02:04:55;3.95;;;2.65;;
28625;SDS011;18905;42.668;23.364;2023-03-01T02:07:28;4.32;;;2.33;;
28625;SDS011;18905;42.668;23.364;2023-03-01T02:09:55;4.90;;;2.70;;
28625;SDS011;18905;42.668;23.364;2023-03-01T02:12:21;6.57;;;2.60;;
28625;SDS011;18905;42.668;23.364;2023-03-01T02:14:50;2.90;;;2.42;;
28625;SDS011;18905;42.668;23.364;2023-03-01T02:17:16;5.22;;;2.70;;
28625;SDS011;18905;42.668;23.364;2023-03-01T02:19:52;3.15;;;2.22;;
28625;SDS011;18905;42.668;23.364;2023-03-01T02:22:30;2.85;;;2.53;;
28625;SDS011;18905;42.668;23.364;2023-03-01T02:27:33;2.88;;;2.42;;
28625;SDS011;18905;42.668;23.364;2023-03-01T02:30:05;4.47;;;2.60;;
28625;SDS011;18905;42.668;23.364;2023-03-01T02:32:32;3.08;;;2.67;;
28625;SDS011;18905;42.668;23.364;2023-03-01T02:34:59;5.30;;;2.72;;
28625;SDS011;18905;42.668;23.364;2023-03-01T02:37:24;3.13;;;2.75;;
28625;SDS011;18905;42.668;23.364;2023-03-01T02:39:59;4.88;;;3.00;;
28625;SDS011;18905;42.668;23.364;2023-03-01T02:42:30;2.10;;;1.77;;
28625;SDS011;18905;42.668;23.364;2023-03-01T02:44:58;3.47;;;2.58;;
28625;SDS011;18905;42.668;23.364;2023-03-01T02:47:24;4.35;;;3.22;;
28625;SDS011;18905;42.668;23.364;2023-03-01T02:49:49;3.63;;;2.90;;
28625;SDS011;18905;42.668;23.364;2023-03-01T02:52:39;6.07;;;3.05;;
28625;SDS011;18905;42.668;23.364;2023-03-01T02:55:18;4.70;;;3.08;;
28625;SDS011;18905;42.668;23.364;2023-03-01T02:57:44;5.57;;;2.90;;
28625;SDS011;18905;42.668;23.364;2023-03-01T03:00:17;3.35;;;2.60;;
28625;SDS011;18905;42.668;23.364;2023-03-01T03:02:46;7.43;;;2.83;;
28625;SDS011;18905;42.668;23.364;2023-03-01T03:05:18;3.17;;;2.70;;
28625;SDS011;18905;42.668;23.364;2023-03-01T03:07:45;3.67;;;2.83;;
28625;SDS011;18905;42.668;23.364;2023-03-01T03:10:16;3.47;;;2.78;;
28625;SDS011;18905;42.668;23.364;2023-03-01T03:12:50;6.50;;;3.05;;
28625;SDS011;18905;42.668;23.364;2023-03-01T03:15:17;4.47;;;3.30;;
28625;SDS011;18905;42.668;23.364;2023-03-01T03:17:43;6.85;;;3.85;;
28625;SDS011;18905;42.668;23.364;2023-03-01T03:20:10;6.80;;;4.07;;
28625;SDS011;18905;42.668;23.364;2023-03-01T03:22:40;5.47;;;4.03;;
28625;SDS011;18905;42.668;23.364;2023-03-01T03:25:06;5.20;;;3.67;;
28625;SDS011;18905;42.668;23.364;2023-03-01T03:27:38;5.90;;;3.38;;
28625;SDS011;18905;42.668;23.364;2023-03-01T03:30:05;7.43;;;4.15;;
28625;SDS011;18905;42.668;23.364;2023-03-01T03:32:36;7.65;;;4.25;;
28625;SDS011;18905;42.668;23.364;2023-03-01T03:35:05;9.18;;;4.82;;
28625;SDS011;18905;42.668;23.364;2023-03-01T03:37:41;9.75;;;5.57;;
28625;SDS011;18905;42.668;23.364;2023-03-01T03:40:25;11.48;;;5.80;;
28625;SDS011;18905;42.668;23.364;2023-03-01T03:42:51;11.13;;;5.20;;
28625;SDS011;18905;42.668;23.364;2023-03-01T03:45:16;9.10;;;5.50;;
28625;SDS011;18905;42.668;23.364;2023-03-01T03:47:43;10.02;;;5.70;;
28625;SDS011;18905;42.668;23.364;2023-03-01T03:50:12;8.15;;;5.07;;
28625;SDS011;18905;42.668;23.364;2023-03-01T03:52:39;7.63;;;4.85;;
28625;SDS011;18905;42.668;23.364;2023-03-01T03:55:05;6.75;;;4.43;;
28625;SDS011;18905;42.668;23.364;2023-03-01T03:57:35;10.82;;;4.93;;
28625;SDS011;18905;42.668;23.364;2023-03-01T04:00:09;4.82;;;3.75;;
28625;SDS011;18905;42.668;23.364;2023-03-01T04:02:42;5.30;;;3.60;;
28625;SDS011;18905;42.668;23.364;2023-03-01T04:05:08;5.85;;;3.55;;
28625;SDS011;18905;42.668;23.364;2023-03-01T04:07:35;4.25;;;3.15;;
28625;SDS011;18905;42.668;23.364;2023-03-01T04:10:05;6.15;;;3.75;;
28625;SDS011;18905;42.668;23.364;2023-03-01T04:12:33;5.38;;;3.75;;
28625;SDS011;18905;42.668;23.364;2023-03-01T04:14:59;4.53;;;3.45;;
28625;SDS011;18905;42.668;23.364;2023-03-01T04:17:25;4.75;;;3.38;;
28625;SDS011;18905;42.668;23.364;2023-03-01T04:19:50;7.88;;;3.00;;
28625;SDS011;18905;42.668;23.364;2023-03-01T04:22:16;8.57;;;3.60;;
28625;SDS011;18905;42.668;23.364;2023-03-01T04:24:43;4.82;;;3.47;;
28625;SDS011;18905;42.668;23.364;2023-03-01T04:27:10;9.10;;;3.65;;
28625;SDS011;18905;42.668;23.364;2023-03-01T04:29:36;4.70;;;3.22;;
28625;SDS011;18905;42.668;23.364;2023-03-01T04:32:01;23.05;;;3.65;;
28625;SDS011;18905;42.668;23.364;2023-03-01T04:34:28;5.53;;;3.30;;
28625;SDS011;18905;42.668;23.364;2023-03-01T04:36:54;5.68;;;3.70;;
28625;SDS011;18905;42.668;23.364;2023-03-01T04:39:19;28.58;;;4.30;;
28625;SDS011;18905;42.668;23.364;2023-03-01T04:41:45;5.40;;;3.40;;
28625;SDS011;18905;42.668;23.364;2023-03-01T04:44:10;4.95;;;3.38;;
28625;SDS011;18905;42.668;23.364;2023-03-01T04:46:36;4.85;;;3.30;;
28625;SDS011;18905;42.668;23.364;2023-03-01T04:49:02;6.55;;;3.70;;
28625;SDS011;18905;42.668;23.364;2023-03-01T04:51:28;4.53;;;3.05;;
28625;SDS011;18905;42.668;23.364;2023-03-01T04:53:54;6.22;;;3.20;;
28625;SDS011;18905;42.668;23.364;2023-03-01T04:56:20;4.65;;;3.47;;
28625;SDS011;18905;42.668;23.364;2023-03-01T04:58:47;3.83;;;2.72;;
28625;SDS011;18905;42.668;23.364;2023-03-01T05:01:15;6.65;;;3.42;;
28625;SDS011;18905;42.668;23.364;2023-03-01T05:03:45;8.55;;;3.55;;
28625;SDS011;18905;42.668;23.364;2023-03-01T05:06:12;5.18;;;3.30;;
28625;SDS011;18905;42.668;23.364;2023-03-01T05:08:38;6.50;;;3.38;;
28625;SDS011;18905;42.668;23.364;2023-03-01T05:11:05;6.55;;;3.53;;
28625;SDS011;18905;42.668;23.364;2023-03-01T05:13:33;6.95;;;3.30;;
28625;SDS011;18905;42.668;23.364;2023-03-01T05:16:00;6.47;;;3.10;;
28625;SDS011;18905;42.668;23.364;2023-03-01T05:18:28;6.85;;;2.80;;
28625;SDS011;18905;42.668;23.364;2023-03-01T05:21:07;5.82;;;3.50;;
28625;SDS011;18905;42.668;23.364;2023-03-01T05:23:43;6.30;;;2.80;;
28625;SDS011;18905;42.668;23.364;2023-03-01T05:26:13;5.38;;;2.97;;
28625;SDS011;18905;42.668;23.364;2023-03-01T05:28:40;4.85;;;2.70;;
28625;SDS011;18905;42.668;23.364;2023-03-01T05:31:06;8.40;;;3.03;;
28625;SDS011;18905;42.668;23.364;2023-03-01T05:33:35;5.32;;;2.67;;
28625;SDS011;18905;42.668;23.364;2023-03-01T05:36:01;5.68;;;2.97;;
28625;SDS011;18905;42.668;23.364;2023-03-01T05:38:27;5.95;;;3.38;;
28625;SDS011;18905;42.668;23.364;2023-03-01T05:40:52;4.97;;;3.47;;
28625;SDS011;18905;42.668;23.364;2023-03-01T05:43:18;6.93;;;3.35;;
28625;SDS011;18905;42.668;23.364;2023-03-01T05:45:44;8.68;;;3.28;;
28625;SDS011;18905;42.668;23.364;2023-03-01T05:48:10;7.78;;;3.85;;
28625;SDS011;18905;42.668;23.364;2023-03-01T05:50:38;4.50;;;3.00;;
28625;SDS011;18905;42.668;23.364;2023-03-01T05:53:11;9.70;;;4.50;;
28625;SDS011;18905;42.668;23.364;2023-03-01T05:55:46;9.35;;;5.28;;
28625;SDS011;18905;42.668;23.364;2023-03-01T05:58:21;9.13;;;5.60;;
28625;SDS011;18905;42.668;23.364;2023-03-01T06:00:47;9.13;;;5.57;;
28625;SDS011;18905;42.668;23.364;2023-03-01T06:03:14;9.52;;;5.82;;
28625;SDS011;18905;42.668;23.364;2023-03-01T06:05:41;8.95;;;5.38;;
28625;SDS011;18905;42.668;23.364;2023-03-01T06:08:08;11.07;;;6.03;;
28625;SDS011;18905;42.668;23.364;2023-03-01T06:10:35;12.35;;;6.05;;
28625;SDS011;18905;42.668;23.364;2023-03-01T06:13:00;9.75;;;5.18;;
28625;SDS011;18905;42.668;23.364;2023-03-01T06:15:26;11.93;;;5.75;;
28625;SDS011;18905;42.668;23.364;2023-03-01T06:17:53;13.60;;;5.85;;
28625;SDS011;18905;42.668;23.364;2023-03-01T06:20:21;11.63;;;5.00;;
28625;SDS011;18905;42.668;23.364;2023-03-01T06:22:49;11.20;;;5.55;;
28625;SDS011;18905;42.668;23.364;2023-03-01T06:25:18;8.73;;;4.80;;
28625;SDS011;18905;42.668;23.364;2023-03-01T06:27:46;10.70;;;4.47;;
28625;SDS011;18905;42.668;23.364;2023-03-01T06:30:14;12.57;;;5.20;;
28625;SDS011;18905;42.668;23.364;2023-03-01T06:32:41;12.45;;;5.15;;
28625;SDS011;18905;42.668;23.364;2023-03-01T06:35:07;9.43;;;4.97;;
28625;SDS011;18905;42.668;23.364;2023-03-01T06:37:34;8.52;;;4.38;;
28625;SDS011;18905;42.668;23.364;2023-03-01T06:40:00;6.75;;;4.70;;
28625;SDS011;18905;42.668;23.364;2023-03-01T06:42:29;10.25;;;5.22;;
28625;SDS011;18905;42.668;23.364;2023-03-01T06:44:55;8.52;;;4.68;;
28625;SDS011;18905;42.668;23.364;2023-03-01T06:47:20;9.93;;;4.90;;
28625;SDS011;18905;42.668;23.364;2023-03-01T06:49:45;12.05;;;4.95;;
28625;SDS011;18905;42.668;23.364;2023-03-01T06:52:11;6.25;;;4.43;;
28625;SDS011;18905;42.668;23.364;2023-03-01T06:54:36;9.95;;;4.50;;
28625;SDS011;18905;42.668;23.364;2023-03-01T06:57:02;8.90;;;4.78;;
28625;SDS011;18905;42.668;23.364;2023-03-01T06:59:27;10.20;;;5.05;;
28625;SDS011;18905;42.668;23.364;2023-03-01T07:01:52;19.95;;;4.45;;
28625;SDS011;18905;42.668;23.364;2023-03-01T07:04:18;7.18;;;4.80;;
28625;SDS011;18905;42.668;23.364;2023-03-01T07:06:43;6.40;;;4.30;;
28625;SDS011;18905;42.668;23.364;2023-03-01T07:09:09;7.45;;;4.10;;
28625;SDS011;18905;42.668;23.364;2023-03-01T07:11:40;9.32;;;4.05;;
28625;SDS011;18905;42.668;23.364;2023-03-01T07:14:47;10.77;;;4.57;;
28625;SDS011;18905;42.668;23.364;2023-03-01T07:17:13;9.80;;;4.10;;
28625;SDS011;18905;42.668;23.364;2023-03-01T07:19:38;8.68;;;3.92;;
28625;SDS011;18905;42.668;23.364;2023-03-01T07:22:06;11.30;;;5.20;;
28625;SDS011;18905;42.668;23.364;2023-03-01T07:24:33;11.82;;;4.47;;
28625;SDS011;18905;42.668;23.364;2023-03-01T07:26:58;13.18;;;4.93;;
28625;SDS011;18905;42.668;23.364;2023-03-01T07:29:24;9.63;;;5.05;;
28625;SDS011;18905;42.668;23.364;2023-03-01T07:31:49;11.40;;;5.43;;
28625;SDS011;18905;42.668;23.364;2023-03-01T07:34:15;10.30;;;5.60;;
28625;SDS011;18905;42.668;23.364;2023-03-01T07:36:40;17.20;;;5.72;;
28625;SDS011;18905;42.668;23.364;2023-03-01T07:39:08;8.73;;;4.53;;
28625;SDS011;18905;42.668;23.364;2023-03-01T07:41:34;14.60;;;5.28;;
28625;SDS011;18905;42.668;23.364;2023-03-01T07:44:00;10.38;;;4.50;;
28625;SDS011;18905;42.668;23.364;2023-03-01T07:46:25;7.43;;;4.15;;
28625;SDS011;18905;42.668;23.364;2023-03-01T07:48:50;10.80;;;4.10;;
28625;SDS011;18905;42.668;23.364;2023-03-01T07:51:16;5.35;;;3.30;;
28625;SDS011;18905;42.668;23.364;2023-03-01T07:53:41;10.65;;;3.50;;
28625;SDS011;18905;42.668;23.364;2023-03-01T07:56:08;6.57;;;3.13;;
28625;SDS011;18905;42.668;23.364;2023-03-01T07:58:36;10.75;;;3.30;;
28625;SDS011;18905;42.668;23.364;2023-03-01T08:01:06;6.00;;;2.88;;
28625;SDS011;18905;42.668;23.364;2023-03-01T08:03:33;7.57;;;3.65;;
28625;SDS011;18905;42.668;23.364;2023-03-01T08:06:00;5.22;;;2.90;;
28625;SDS011;18905;42.668;23.364;2023-03-01T08:08:26;5.75;;;3.00;;
28625;SDS011;18905;42.668;23.364;2023-03-01T08:10:52;11.23;;;3.22;;
28625;SDS011;18905;42.668;23.364;2023-03-01T08:13:17;7.28;;;2.90;;
28625;SDS011;18905;42.668;23.364;2023-03-01T08:15:47;11.02;;;3.72;;
28625;SDS011;18905;42.668;23.364;2023-03-01T08:18:14;10.85;;;3.38;;
28625;SDS011;18905;42.668;23.364;2023-03-01T08:20:40;6.65;;;2.95;;
28625;SDS011;18905;42.668;23.364;2023-03-01T08:23:05;5.40;;;2.95;;
28625;SDS011;18905;42.668;23.364;2023-03-01T08:25:30;10.05;;;2.78;;
28625;SDS011;18905;42.668;23.364;2023-03-01T08:27:56;2.63;;;2.20;;
28625;SDS011;18905;42.668;23.364;2023-03-01T08:30:21;5.82;;;2.15;;
28625;SDS011;18905;42.668;23.364;2023-03-01T08:32:49;5.95;;;3.45;;
28625;SDS011;18905;42.668;23.364;2023-03-01T08:35:15;5.18;;;2.78;;
28625;SDS011;18905;42.668;23.364;2023-03-01T08:37:40;5.82;;;3.20;;
28625;SDS011;18905;42.668;23.364;2023-03-01T08:40:06;5.80;;;3.08;;
28625;SDS011;18905;42.668;23.364;2023-03-01T08:42:32;5.22;;;2.65;;
28625;SDS011;18905;42.668;23.364;2023-03-01T08:44:58;7.50;;;2.75;;
28625;SDS011;18905;42.668;23.364;2023-03-01T08:47:23;7.05;;;3.55;;
28625;SDS011;18905;42.668;23.364;2023-03-01T08:49:49;6.70;;;3.17;;
28625;SDS011;18905;42.668;23.364;2023-03-01T08:52:15;13.63;;;3.97;;
28625;SDS011;18905;42.668;23.364;2023-03-01T08:54:41;5.75;;;3.38;;
28625;SDS011;18905;42.668;23.364;2023-03-01T08:57:06;11.13;;;3.45;;
28625;SDS011;18905;42.668;23.364;2023-03-01T08:59:31;3.80;;;3.15;;
28625;SDS011;18905;42.668;23.364;2023-03-01T09:02:02;5.10;;;3.67;;
28625;SDS011;18905;42.668;23.364;2023-03-01T09:04:27;7.07;;;3.63;;
28625;SDS011;18905;42.668;23.364;2023-03-01T09:06:53;8.27;;;3.10;;
28625;SDS011;18905;42.668;23.364;2023-03-01T09:09:18;4.38;;;2.28;;
28625;SDS011;18905;42.668;23.364;2023-03-01T09:11:44;6.97;;;3.00;;
28625;SDS011;18905;42.668;23.364;2023-03-01T09:14:11;12.93;;;2.80;;
28625;SDS011;18905;42.668;23.364;2023-03-01T09:16:39;4.15;;;2.22;;
28625;SDS011;18905;42.668;23.364;2023-03-01T09:19:05;5.43;;;2.60;;
28625;SDS011;18905;42.668;23.364;2023-03-01T09:21:30;3.13;;;2.17;;
28625;SDS011;18905;42.668;23.364;2023-03-01T09:23:57;3.65;;;2.60;;
28625;SDS011;18905;42.668;23.364;2023-03-01T09:26:23;2.53;;;2.20;;
28625;SDS011;18905;42.668;23.364;2023-03-01T09:28:50;3.53;;;2.25;;
28625;SDS011;18905;42.668;23.364;2023-03-01T09:31:18;4.43;;;1.83;;
28625;SDS011;18905;42.668;23.364;2023-03-01T09:33:46;3.00;;;1.80;;
28625;SDS011;18905;42.668;23.364;2023-03-01T09:36:13;2.28;;;1.67;;
28625;SDS011;18905;42.668;23.364;2023-03-01T09:38:40;3.20;;;1.75;;
28625;SDS011;18905;42.668;23.364;2023-03-01T09:41:09;3.75;;;2.00;;
28625;SDS011;18905;42.668;23.364;2023-03-01T09:43:56;6.68;;;1.70;;
28625;SDS011;18905;42.668;23.364;2023-03-01T09:46:29;2.10;;;1.85;;
28625;SDS011;18905;42.668;23.364;2023-03-01T09:49:01;3.92;;;1.90;;
28625;SDS011;18905;42.668;23.364;2023-03-01T09:51:35;4.47;;;2.20;;
28625;SDS011;18905;42.668;23.364;2023-03-01T09:54:04;2.22;;;1.60;;
28625;SDS011;18905;42.668;23.364;2023-03-01T10:08:19;8.73;;;2.35;;
28625;SDS011;18905;42.668;23.364;2023-03-01T10:11:18;5.35;;;1.80;;
28625;SDS011;18905;42.668;23.364;2023-03-01T10:13:48;7.22;;;2.33;;
28625;SDS011;18905;42.668;23.364;2023-03-01T10:19:12;7.03;;;1.90;;
28625;SDS011;18905;42.668;23.364;2023-03-01T10:21:47;5.03;;;2.05;;
28625;SDS011;18905;42.668;23.364;2023-03-01T10:24:16;2.70;;;1.80;;
28625;SDS011;18905;42.668;23.364;2023-03-01T10:27:01;3.55;;;1.83;;
28625;SDS011;18905;42.668;23.364;2023-03-01T10:29:44;3.38;;;1.95;;
28625;SDS011;18905;42.668;23.364;2023-03-01T10:32:18;5.32;;;2.40;;
28625;SDS011;18905;42.668;23.364;2023-03-01T10:34:44;5.63;;;2.38;;
28625;SDS011;18905;42.668;23.364;2023-03-01T10:39:36;3.22;;;2.03;;
28625;SDS011;18905;42.668;23.364;2023-03-01T10:42:19;4.85;;;2.13;;
28625;SDS011;18905;42.668;23.364;2023-03-01T10:44:55;4.45;;;2.10;;
28625;SDS011;18905;42.668;23.364;2023-03-01T10:47:24;2.80;;;1.90;;
28625;SDS011;18905;42.668;23.364;2023-03-01T10:49:56;4.60;;;2.30;;
28625;SDS011;18905;42.668;23.364;2023-03-01T10:52:30;4.40;;;2.30;;
28625;SDS011;18905;42.668;23.364;2023-03-01T10:57:48;4.75;;;2.10;;
28625;SDS011;18905;42.668;23.364;2023-03-01T11:00:15;2.22;;;1.98;;
28625;SDS011;18905;42.668;23.364;2023-03-01T11:02:48;2.33;;;1.92;;
28625;SDS011;18905;42.668;23.364;2023-03-01T11:05:28;2.78;;;1.92;;
28625;SDS011;18905;42.668;23.364;2023-03-01T11:07:58;3.00;;;2.28;;
28625;SDS011;18905;42.668;23.364;2023-03-01T11:10:26;3.30;;;2.30;;
28625;SDS011;18905;42.668;23.364;2023-03-01T11:12:54;5.75;;;2.58;;
28625;SDS011;18905;42.668;23.364;2023-03-01T11:15:34;3.90;;;2.30;;
28625;SDS011;18905;42.668;23.364;2023-03-01T11:18:00;5.30;;;1.98;;
28625;SDS011;18905;42.668;23.364;2023-03-01T11:20:30;3.10;;;2.05;;
28625;SDS011;18905;42.668;23.364;2023-03-01T11:25:40;11.90;;;2.95;;
28625;SDS011;18905;42.668;23.364;2023-03-01T11:28:15;2.80;;;1.90;;
28625;SDS011;18905;42.668;23.364;2023-03-01T11:30:51;8.70;;;2.58;;
28625;SDS011;18905;42.668;23.364;2023-03-01T11:38:30;7.38;;;3.00;;
28625;SDS011;18905;42.668;23.364;2023-03-01T11:41:07;3.88;;;2.88;;
28625;SDS011;18905;42.668;23.364;2023-03-01T11:51:31;4.63;;;2.85;;
28625;SDS011;18905;42.668;23.364;2023-03-01T11:57:16;5.35;;;3.25;;
28625;SDS011;18905;42.668;23.364;2023-03-01T12:10:27;7.30;;;3.72;;
28625;SDS011;18905;42.668;23.364;2023-03-01T12:16:06;5.45;;;3.90;;
28625;SDS011;18905;42.668;23.364;2023-03-01T12:21:35;8.18;;;3.83;;
28625;SDS011;18905;42.668;23.364;2023-03-01T12:27:32;7.45;;;3.97;;
28625;SDS011;18905;42.668;23.364;2023-03-01T12:38:56;7.75;;;4.07;;
28625;SDS011;18905;42.668;23.364;2023-03-01T12:49:46;7.70;;;4.45;;
28625;SDS011;18905;42.668;23.364;2023-03-01T12:52:22;7.47;;;4.03;;
28625;SDS011;18905;42.668;23.364;2023-03-01T13:00:17;5.60;;;4.22;;
28625;SDS011;18905;42.668;23.364;2023-03-01T13:02:49;9.02;;;4.13;;
28625;SDS011;18905;42.668;23.364;2023-03-01T13:05:33;6.03;;;4.18;;
28625;SDS011;18905;42.668;23.364;2023-03-01T13:10:51;4.85;;;4.05;;
28625;SDS011;18905;42.668;23.364;2023-03-01T13:13:26;5.13;;;3.35;;
28625;SDS011;18905;42.668;23.364;2023-03-01T13:15:53;6.75;;;4.25;;
28625;SDS011;18905;42.668;23.364;2023-03-01T13:20:49;9.00;;;4.53;;
28625;SDS011;18905;42.668;23.364;2023-03-01T13:33:56;6.60;;;3.75;;
28625;SDS011;18905;42.668;23.364;2023-03-01T13:46:51;10.13;;;3.60;;
28625;SDS011;18905;42.668;23.364;2023-03-01T13:49:22;14.07;;;4.13;;
28625;SDS011;18905;42.668;23.364;2023-03-01T13:51:52;6.05;;;3.55;;
28625;SDS011;18905;42.668;23.364;2023-03-01T13:54:29;5.28;;;3.38;;
28625;SDS011;18905;42.668;23.364;2023-03-01T13:56:57;7.05;;;3.70;;
28625;SDS011;18905;42.668;23.364;2023-03-01T13:59:24;5.65;;;3.80;;
28625;SDS011;18905;42.668;23.364;2023-03-01T14:01:58;5.20;;;3.30;;
28625;SDS011;18905;42.668;23.364;2023-03-01T14:04:29;5.03;;;3.95;;
28625;SDS011;18905;42.668;23.364;2023-03-01T14:07:17;7.57;;;3.78;;
28625;SDS011;18905;42.668;23.364;2023-03-01T14:09:47;10.75;;;4.25;;
28625;SDS011;18905;42.668;23.364;2023-03-01T14:12:19;10.00;;;4.03;;
28625;SDS011;18905;42.668;23.364;2023-03-01T14:20:48;5.70;;;3.45;;
28625;SDS011;18905;42.668;23.364;2023-03-01T14:23:19;5.70;;;3.80;;
28625;SDS011;18905;42.668;23.364;2023-03-01T14:25:47;9.70;;;3.35;;
28625;SDS011;18905;42.668;23.364;2023-03-01T14:28:27;8.30;;;4.18;;
28625;SDS011;18905;42.668;23.364;2023-03-01T14:34:03;6.60;;;3.30;;
28625;SDS011;18905;42.668;23.364;2023-03-01T14:36:43;6.13;;;3.42;;
28625;SDS011;18905;42.668;23.364;2023-03-01T14:39:16;5.25;;;3.00;;
28625;SDS011;18905;42.668;23.364;2023-03-01T14:41:48;10.75;;;3.47;;
28625;SDS011;18905;42.668;23.364;2023-03-01T14:44:18;5.63;;;2.70;;
28625;SDS011;18905;42.668;23.364;2023-03-01T14:46:51;8.27;;;3.30;;
28625;SDS011;18905;42.668;23.364;2023-03-01T14:49:20;8.65;;;2.17;;
28625;SDS011;18905;42.668;23.364;2023-03-01T14:52:00;4.85;;;2.53;;
28625;SDS011;18905;42.668;23.364;2023-03-01T14:54:39;7.25;;;3.17;;
28625;SDS011;18905;42.668;23.364;2023-03-01T15:00:00;8.93;;;3.67;;
28625;SDS011;18905;42.668;23.364;2023-03-01T15:02:34;6.20;;;3.17;;
28625;SDS011;18905;42.668;23.364;2023-03-01T15:05:02;8.38;;;3.65;;
28625;SDS011;18905;42.668;23.364;2023-03-01T15:07:30;7.20;;;2.95;;
28625;SDS011;18905;42.668;23.364;2023-03-01T15:09:59;6.65;;;3.40;;
28625;SDS011;18905;42.668;23.364;2023-03-01T15:14:52;8.48;;;3.47;;
28625;SDS011;18905;42.668;23.364;2023-03-01T15:17:37;7.88;;;3.25;;
28625;SDS011;18905;42.668;23.364;2023-03-01T15:20:05;10.60;;;3.40;;
28625;SDS011;18905;42.668;23.364;2023-03-01T15:22:40;6.38;;;3.47;;
28625;SDS011;18905;42.668;23.364;2023-03-01T15:25:18;6.63;;;3.08;;
28625;SDS011;18905;42.668;23.364;2023-03-01T15:27:47;5.45;;;2.20;;
28625;SDS011;18905;42.668;23.364;2023-03-01T15:30:20;7.75;;;3.60;;
28625;SDS011;18905;42.668;23.364;2023-03-01T15:32:48;8.02;;;3.67;;
28625;SDS011;18905;42.668;23.364;2023-03-01T15:35:53;12.35;;;4.38;;
28625;SDS011;18905;42.668;23.364;2023-03-01T15:38:28;13.48;;;4.32;;
28625;SDS011;18905;42.668;23.364;2023-03-01T15:41:23;14.88;;;4.85;;
28625;SDS011;18905;42.668;23.364;2023-03-01T15:43:51;6.47;;;3.55;;
28625;SDS011;18905;42.668;23.364;2023-03-01T15:46:31;11.70;;;3.20;;
28625;SDS011;18905;42.668;23.364;2023-03-01T15:49:17;13.40;;;3.67;;
28625;SDS011;18905;42.668;23.364;2023-03-01T15:51:56;10.18;;;4.25;;
28625;SDS011;18905;42.668;23.364;2023-03-01T15:54:22;12.20;;;4.35;;
28625;SDS011;18905;42.668;23.364;2023-03-01T15:56:50;13.55;;;4.60;;
28625;SDS011;18905;42.668;23.364;2023-03-01T15:59:16;15.80;;;4.13;;
28625;SDS011;18905;42.668;23.364;2023-03-01T16:01:43;9.63;;;3.40;;
28625;SDS011;18905;42.668;23.364;2023-03-01T16:04:10;14.65;;;4.20;;
28625;SDS011;18905;42.668;23.364;2023-03-01T16:06:41;7.03;;;4.13;;
28625;SDS011;18905;42.668;23.364;2023-03-01T16:09:07;9.73;;;4.00;;
28625;SDS011;18905;42.668;23.364;2023-03-01T16:11:35;8.05;;;4.57;;
28625;SDS011;18905;42.668;23.364;2023-03-01T16:14:02;9.95;;;4.40;;
28625;SDS011;18905;42.668;23.364;2023-03-01T16:16:28;8.45;;;4.38;;
28625;SDS011;18905;42.668;23.364;2023-03-01T16:18:54;10.43;;;3.55;;
28625;SDS011;18905;42.668;23.364;2023-03-01T16:21:21;9.68;;;4.05;;
28625;SDS011;18905;42.668;23.364;2023-03-01T16:23:48;8.80;;;4.43;;
28625;SDS011;18905;42.668;23.364;2023-03-01T16:26:18;9.57;;;4.90;;
28625;SDS011;18905;42.668;23.364;2023-03-01T16:28:44;11.52;;;4.40;;
28625;SDS011;18905;42.668;23.364;2023-03-01T16:31:11;8.38;;;4.63;;
28625;SDS011;18905;42.668;23.364;2023-03-01T16:33:39;9.02;;;4.57;;
28625;SDS011;18905;42.668;23.364;2023-03-01T16:36:11;11.60;;;5.30;;
28625;SDS011;18905;42.668;23.364;2023-03-01T16:38:37;7.93;;;4.70;;
28625;SDS011;18905;42.668;23.364;2023-03-01T16:41:04;7.28;;;4.30;;
28625;SDS011;18905;42.668;23.364;2023-03-01T16:43:33;8.82;;;4.47;;
28625;SDS011;18905;42.668;23.364;2023-03-01T16:45:59;10.77;;;4.78;;
28625;SDS011;18905;42.668;23.364;2023-03-01T16:48:25;7.95;;;5.25;;
28625;SDS011;18905;42.668;23.364;2023-03-01T16:51:00;9.93;;;5.47;;
28625;SDS011;18905;42.668;23.364;2023-03-01T16:53:27;7.93;;;4.30;;